createdAt,value
2023-05-31T00:03:30.877Z,71.59
2023-05-31T00:06:03.637Z,71.59
2023-05-31T00:08:43.536Z,72.03
2023-05-31T00:11:15.947Z,72.11
2023-05-31T00:13:54.302Z,72.17
2023-05-31T00:17:01.427Z,72.02
2023-05-31T00:20:12.401Z,72.41
2023-05-31T00:23:18.197Z,72.38
2023-05-31T00:25:50.431Z,72.56
2023-05-31T00:28:22.668Z,72.56
2023-05-31T00:35:27.335Z,72.99
2023-05-31T00:38:28.914Z,73.08
2023-05-31T00:41:01.616Z,73.24
2023-05-31T00:43:34.263Z,73.25
2023-05-31T00:46:06.631Z,73.20
2023-05-31T00:48:45.311Z,73.33
2023-05-31T00:51:20.136Z,73.46
2023-05-31T00:54:00.097Z,73.67
2023-05-31T00:56:32.842Z,73.56
2023-05-31T00:59:14.640Z,73.78
2023-05-31T01:01:47.296Z,73.70
2023-05-31T01:04:27.405Z,74.13
2023-05-31T01:07:02.131Z,74.09
2023-05-31T01:10:46.152Z,74.12
2023-05-31T01:26:13.901Z,74.86
2023-05-31T01:36:47.860Z,75.05
2023-05-31T01:39:53.845Z,75.05
2023-05-31T01:46:59.107Z,75.59
2023-05-31T01:49:31.618Z,75.46
2023-05-31T01:52:04.767Z,75.93
2023-05-31T01:54:37.167Z,75.62
2023-05-31T01:57:17.533Z,75.59
2023-05-31T02:00:13.914Z,75.75
2023-05-31T02:03:32.564Z,76.02
2023-05-31T02:06:14.332Z,75.83
2023-05-31T02:09:32.062Z,76.07
2023-05-31T02:12:12.569Z,75.98
2023-05-31T02:19:58.511Z,76.35
2023-05-31T02:22:37.386Z,76.29
2023-05-31T02:28:59.380Z,76.74
2023-05-31T02:31:31.671Z,76.90
2023-05-31T02:34:12.403Z,76.98
2023-05-31T02:36:44.692Z,77.01
2023-05-31T02:39:24.483Z,76.91
2023-05-31T02:47:05.520Z,77.41
2023-05-31T02:49:44.789Z,77.64
2023-05-31T02:52:17.416Z,77.62
2023-05-31T02:55:35.871Z,77.82
2023-05-31T02:58:48.599Z,77.88
2023-05-31T03:02:28.702Z,78.08
2023-05-31T03:05:48.652Z,77.89
2023-05-31T03:08:21.322Z,78.08
2023-05-31T03:11:00.834Z,78.06
2023-05-31T03:13:33.558Z,78.05
2023-05-31T03:20:40.150Z,78.77
2023-05-31T03:23:19.588Z,78.85
2023-05-31T03:25:52.008Z,78.83
2023-05-31T03:32:56.697Z,79.65
2023-05-31T03:35:29.519Z,79.49
2023-05-31T03:38:08.676Z,79.86
2023-05-31T03:40:41.073Z,80.05
2023-05-31T03:43:33.487Z,80.17
2023-05-31T03:46:07.317Z,80.27
2023-05-31T03:48:39.889Z,80.41
2023-05-31T03:51:19.498Z,80.63
2023-05-31T03:53:52.072Z,81.06
2023-05-31T03:56:33.174Z,80.96
2023-05-31T04:04:23.848Z,81.75
2023-05-31T04:11:28.979Z,82.50
2023-05-31T04:23:50.410Z,83.25
2023-05-31T04:27:48.814Z,83.34
2023-05-31T04:30:27.462Z,83.51
2023-05-31T04:37:32.510Z,83.52
2023-05-31T04:40:14.782Z,83.24
2023-05-31T04:42:47.101Z,83.40
2023-05-31T04:45:58.994Z,83.20
2023-05-31T04:52:48.739Z,83.42
2023-05-31T04:55:28.544Z,83.24
2023-05-31T04:58:22.632Z,83.06
2023-05-31T05:00:55.568Z,83.26
2023-05-31T05:03:52.392Z,83.20
2023-05-31T05:06:25.636Z,82.99
2023-05-31T05:12:45.939Z,82.97
2023-05-31T05:15:18.542Z,82.45
2023-05-31T05:17:58.509Z,82.30
2023-05-31T05:20:35.229Z,82.40
2023-05-31T05:34:36.282Z,81.50
2023-05-31T05:38:34.597Z,81.21
2023-05-31T05:41:15.546Z,81.02
2023-05-31T05:44:08.596Z,80.92
2023-05-31T05:47:15.361Z,80.49
2023-05-31T05:49:49.854Z,79.96
2023-05-31T05:52:22.762Z,79.65
2023-05-31T05:54:55.016Z,79.57
2023-05-31T05:57:28.150Z,78.78
2023-05-31T06:00:13.370Z,78.64
2023-05-31T06:03:21.249Z,78.14
2023-05-31T06:05:54.539Z,78.29
2023-05-31T06:09:28.177Z,77.53
2023-05-31T06:12:01.768Z,77.34
2023-05-31T06:14:44.676Z,77.35
2023-05-31T06:17:16.888Z,76.89
2023-05-31T06:19:49.129Z,76.78
2023-05-31T06:23:16.122Z,76.11
2023-05-31T06:34:51.740Z,74.77
2023-05-31T06:37:32.495Z,74.92
2023-05-31T06:40:06.204Z,74.02
2023-05-31T06:42:38.987Z,73.54
2023-05-31T06:46:25.462Z,72.65
2023-05-31T06:53:42.712Z,71.58
2023-05-31T06:56:53.747Z,71.76
2023-05-31T06:59:26.036Z,70.93
2023-05-31T07:02:30.935Z,70.43
2023-05-31T07:05:03.529Z,70.35
2023-05-31T07:07:36.060Z,69.52
2023-05-31T07:10:10.171Z,68.98
2023-05-31T07:12:42.907Z,68.27
2023-05-31T07:19:20.308Z,67.87
2023-05-31T07:27:22.359Z,66.66
2023-05-31T07:30:14.350Z,65.91
2023-05-31T07:33:28.295Z,65.70
2023-05-31T07:36:03.311Z,65.05
2023-05-31T07:38:36.071Z,64.79
2023-05-31T07:48:16.008Z,60.85
2023-05-31T07:50:54.681Z,59.35
2023-05-31T07:57:59.759Z,58.47
2023-05-31T08:00:38.603Z,58.30
2023-05-31T08:03:11.167Z,58.19
2023-05-31T08:10:15.667Z,57.00
2023-05-31T08:12:55.419Z,57.07
2023-05-31T08:15:29.100Z,56.22
2023-05-31T08:26:40.052Z,54.11
2023-05-31T08:29:18.597Z,53.58
2023-05-31T08:36:02.391Z,51.92
2023-05-31T08:46:07.915Z,50.15
2023-05-31T08:58:00.304Z,48.86
2023-05-31T09:00:39.415Z,48.28
2023-05-31T09:03:12.678Z,48.26
2023-05-31T09:06:09.361Z,47.77
2023-05-31T09:08:41.610Z,47.13
2023-05-31T09:11:14.193Z,47.26
2023-05-31T09:13:54.108Z,46.05
2023-05-31T09:16:27.132Z,45.96
2023-05-31T09:19:07.141Z,46.24
2023-05-31T09:26:03.155Z,45.52
2023-05-31T09:33:09.364Z,43.50
2023-05-31T09:44:34.455Z,43.41
2023-05-31T09:56:46.598Z,41.68
2023-05-31T09:59:41.998Z,42.16
2023-05-31T10:03:07.091Z,41.73
2023-05-31T10:10:13.330Z,41.40
2023-05-31T10:21:30.060Z,41.93
2023-05-31T10:24:28.036Z,41.70
2023-05-31T10:36:27.977Z,40.29
2023-05-31T10:43:42.882Z,40.71
2023-05-31T10:49:41.132Z,39.63
2023-05-31T10:57:31.884Z,39.33
2023-05-31T11:07:39.896Z,38.84
2023-05-31T11:23:08.799Z,38.21
2023-05-31T11:30:16.732Z,38.43
2023-05-31T11:37:18.269Z,37.25
2023-05-31T11:39:50.865Z,37.11
2023-05-31T11:47:14.600Z,36.89
2023-05-31T11:50:20.327Z,36.43
2023-05-31T11:52:56.024Z,36.85
2023-05-31T11:56:18.710Z,36.82
2023-05-31T11:58:59.822Z,36.83
2023-05-31T12:10:12.845Z,36.92
2023-05-31T12:12:47.985Z,36.74
2023-05-31T12:19:53.724Z,36.92
2023-05-31T12:22:27.649Z,36.82
2023-05-31T12:25:01.830Z,37.16
2023-05-31T12:28:02.180Z,36.53
2023-05-31T12:30:46.352Z,36.57
2023-05-31T12:34:17.128Z,36.15
2023-05-31T12:45:33.105Z,35.56
2023-05-31T12:49:03.687Z,35.96
2023-05-31T13:14:12.841Z,35.23
2023-05-31T13:21:15.768Z,35.26
2023-05-31T13:23:47.812Z,34.34
2023-05-31T13:30:14.083Z,34.90
2023-05-31T13:32:47.520Z,35.01
2023-05-31T13:35:26.242Z,34.78
2023-05-31T13:37:58.428Z,35.09
2023-05-31T13:40:38.303Z,34.90
2023-05-31T13:43:11.298Z,34.74
2023-05-31T13:45:43.577Z,33.42
2023-05-31T13:48:15.856Z,34.21
2023-05-31T13:50:48.217Z,34.86
2023-05-31T13:57:37.632Z,33.81
2023-05-31T14:03:43.591Z,34.77
2023-05-31T14:10:14.906Z,34.18
2023-05-31T14:12:47.736Z,34.02
2023-05-31T14:15:20.065Z,33.93
2023-05-31T14:17:52.378Z,34.05
2023-05-31T14:21:15.964Z,34.07
2023-05-31T14:23:48.494Z,34.07
2023-05-31T14:26:21.444Z,33.61
2023-05-31T14:29:00.311Z,33.93
2023-05-31T14:31:32.736Z,33.92
2023-05-31T14:38:39.969Z,33.53
2023-05-31T14:48:39.785Z,33.48
2023-05-31T14:51:18.132Z,33.14
2023-05-31T14:53:51.926Z,33.12
2023-05-31T14:56:45.499Z,33.17
2023-05-31T15:03:51.556Z,32.38
2023-05-31T15:15:19.512Z,33.21
2023-05-31T15:17:51.712Z,33.19
2023-05-31T15:20:24.218Z,33.32
2023-05-31T15:22:56.223Z,33.46
2023-05-31T15:25:28.231Z,33.15
2023-05-31T15:32:35.202Z,32.75
2023-05-31T15:39:03.276Z,32.34
2023-05-31T15:42:16.084Z,32.10
2023-05-31T15:44:54.218Z,32.24
2023-05-31T15:47:26.412Z,32.55
2023-05-31T15:50:05.630Z,32.37
2023-05-31T15:52:37.700Z,32.80
2023-05-31T15:55:11.136Z,32.44
2023-05-31T15:57:43.178Z,32.52
2023-05-31T16:00:17.847Z,32.15
2023-05-31T16:02:53.031Z,31.84
2023-05-31T16:05:26.267Z,31.60
2023-05-31T16:08:01.066Z,31.94
2023-05-31T16:10:34.557Z,32.15
2023-05-31T16:13:09.057Z,32.07
2023-05-31T16:15:43.148Z,31.97
2023-05-31T16:18:15.585Z,31.96
2023-05-31T16:20:48.300Z,32.52
2023-05-31T16:23:20.558Z,32.37
2023-05-31T16:25:54.581Z,32.48
2023-05-31T16:28:27.015Z,32.38
2023-05-31T16:31:13.466Z,32.65
2023-05-31T16:33:46.755Z,32.80
2023-05-31T16:36:19.275Z,32.78
2023-05-31T16:39:02.286Z,33.25
2023-05-31T16:41:34.510Z,34.13
2023-05-31T16:44:46.307Z,34.31
2023-05-31T16:47:20.621Z,34.45
2023-05-31T16:49:52.920Z,34.28
2023-05-31T16:52:25.680Z,42.79
2023-05-31T16:54:59.131Z,44.61
2023-05-31T16:57:31.246Z,39.19
2023-05-31T17:00:03.376Z,39.79
2023-05-31T17:02:35.854Z,40.42
2023-05-31T17:05:10.661Z,41.01
2023-05-31T17:07:55.951Z,40.80
2023-05-31T17:10:28.722Z,41.22
2023-05-31T17:13:04.642Z,41.29
2023-05-31T17:15:37.091Z,41.65
2023-05-31T17:18:09.592Z,41.98
2023-05-31T17:20:44.549Z,42.36
2023-05-31T17:23:29.868Z,42.45
2023-05-31T17:26:02.521Z,42.59
2023-05-31T17:28:35.004Z,42.50
2023-05-31T17:31:07.882Z,43.00
2023-05-31T17:33:40.140Z,43.26
2023-05-31T17:36:13.253Z,43.46
2023-05-31T17:38:45.450Z,43.69
2023-05-31T17:41:19.807Z,44.00
2023-05-31T17:44:01.407Z,44.17
2023-05-31T17:46:33.697Z,44.50
2023-05-31T17:49:06.028Z,44.39
2023-05-31T17:51:38.735Z,44.56
2023-05-31T17:54:11.711Z,45.00
2023-05-31T17:56:45.580Z,45.22
2023-05-31T17:59:18.328Z,45.73
2023-05-31T18:01:53.110Z,46.17
2023-05-31T18:04:34.728Z,46.57
2023-05-31T18:07:07.505Z,46.47
2023-05-31T18:09:39.721Z,46.86
2023-05-31T18:12:12.733Z,47.15
2023-05-31T18:14:46.018Z,47.41
2023-05-31T18:17:18.622Z,47.60
2023-05-31T18:19:50.855Z,47.74
2023-05-31T18:22:23.859Z,48.15
2023-05-31T18:24:57.153Z,48.06
2023-05-31T18:27:29.322Z,48.53
2023-05-31T18:30:02.018Z,48.79
2023-05-31T18:32:36.698Z,48.77
2023-05-31T18:35:09.903Z,48.91
2023-05-31T18:37:44.524Z,49.46
2023-05-31T18:40:16.790Z,49.60
2023-05-31T18:42:49.112Z,50.52
2023-05-31T18:45:21.295Z,50.86
2023-05-31T18:47:53.916Z,51.08
2023-05-31T18:50:26.615Z,51.21
2023-05-31T18:52:58.896Z,51.46
2023-05-31T18:55:31.978Z,52.05
2023-05-31T18:58:06.367Z,52.63
2023-05-31T19:00:47.428Z,53.01
2023-05-31T19:03:20.006Z,53.24
2023-05-31T19:05:54.298Z,53.71
2023-05-31T19:08:28.452Z,54.07
2023-05-31T19:11:01.274Z,54.57
2023-05-31T19:13:33.992Z,54.98
2023-05-31T19:16:06.848Z,55.31
2023-05-31T19:18:39.365Z,56.26
2023-05-31T19:21:11.663Z,56.29
2023-05-31T19:23:45.941Z,56.65
2023-05-31T19:29:32.553Z,57.14
2023-05-31T19:32:10.840Z,58.04
2023-05-31T19:34:59.823Z,58.29
2023-05-31T19:37:32.538Z,58.34
2023-05-31T19:40:08.962Z,58.22
2023-05-31T19:42:51.439Z,57.90
2023-05-31T19:45:23.922Z,58.01
2023-05-31T19:47:56.233Z,58.59
2023-05-31T19:50:36.338Z,59.08
2023-05-31T19:53:08.563Z,59.69
2023-05-31T19:55:42.535Z,59.84
2023-05-31T19:58:28.931Z,59.20
2023-05-31T20:04:55.451Z,60.00
2023-05-31T20:07:27.739Z,59.93
2023-05-31T20:14:30.917Z,61.07
2023-05-31T20:17:03.153Z,61.79
2023-05-31T20:19:36.711Z,61.51
2023-05-31T20:22:10.086Z,61.62
2023-05-31T20:24:49.059Z,61.79
2023-05-31T20:28:07.949Z,62.24
